createdAt,value
2022-11-06T00:00:06.881Z,81.63
2022-11-06T00:05:16.529Z,80.50
2022-11-06T00:10:24.631Z,64.50
2022-11-06T00:15:33.076Z,63.97
2022-11-06T00:20:41.003Z,62.60
2022-11-06T00:25:51.773Z,50.13
2022-11-06T00:31:02.882Z,50.10
2022-11-06T00:36:13.693Z,42.30
2022-11-06T00:41:21.794Z,36.77
2022-11-06T00:46:30.373Z,30.90
2022-11-06T00:51:39.661Z,40.77
2022-11-06T00:56:47.480Z,51.80
2022-11-06T01:01:56.103Z,39.07
2022-11-06T01:07:04.667Z,38.23
2022-11-06T01:12:14.752Z,45.43
2022-11-06T01:17:23.111Z,41.50
2022-11-06T01:22:31.048Z,51.53
2022-11-06T01:27:39.869Z,71.30
2022-11-06T01:32:47.699Z,78.93
2022-11-06T01:37:55.589Z,56.33
2022-11-06T01:43:04.951Z,47.80
2022-11-06T01:48:13.695Z,53.13
2022-11-06T01:53:21.890Z,59.13
2022-11-06T01:58:31.678Z,53.57
2022-11-06T02:03:39.943Z,54.80
2022-11-06T02:08:47.827Z,71.30
2022-11-06T02:13:58.815Z,48.13
2022-11-06T02:19:09.982Z,72.47
2022-11-06T02:24:22.062Z,67.87
2022-11-06T02:29:40.327Z,66.90
2022-11-06T02:34:49.462Z,79.23
2022-11-06T02:40:18.408Z,77.70
2022-11-06T02:45:26.485Z,69.67
2022-11-06T02:50:36.509Z,77.70
2022-11-06T02:55:48.030Z,85.47
2022-11-06T03:00:59.765Z,95.63
2022-11-06T03:06:11.362Z,78.90
2022-11-06T03:16:38.082Z,60.65
2022-11-06T03:21:49.346Z,70.27
2022-11-06T03:26:58.241Z,51.63
2022-11-06T03:32:10.213Z,54.07
2022-11-06T03:37:20.732Z,49.10
2022-11-06T03:42:31.297Z,52.20
2022-11-06T03:47:43.496Z,50.43
2022-11-06T03:52:54.936Z,43.33
2022-11-06T03:58:05.684Z,60.40
2022-11-06T04:03:17.614Z,59.87
2022-11-06T04:08:27.786Z,64.10
2022-11-06T04:13:39.520Z,56.37
2022-11-06T04:18:47.451Z,48.13
2022-11-06T04:24:00.004Z,52.50
2022-11-06T04:29:14.020Z,42.83
2022-11-06T04:34:25.497Z,43.47
2022-11-06T04:39:36.591Z,46.07
2022-11-06T04:44:47.933Z,56.77
2022-11-06T04:49:58.105Z,57.30
2022-11-06T04:55:06.368Z,53.60
2022-11-06T05:00:16.171Z,50.07
2022-11-06T05:05:24.468Z,53.23
2022-11-06T05:10:32.253Z,55.87
2022-11-06T05:15:40.127Z,49.43
2022-11-06T05:20:48.925Z,49.80
2022-11-06T05:25:58.611Z,49.83
2022-11-06T05:31:06.867Z,45.17
2022-11-06T05:36:16.476Z,60.23
2022-11-06T05:41:24.326Z,58.10
2022-11-06T05:46:49.657Z,49.57
2022-11-06T05:51:42.157Z,49.87
2022-11-06T05:56:50.310Z,47.23
2022-11-06T06:02:00.474Z,54.27
2022-11-06T06:07:08.954Z,50.40
2022-11-06T06:12:18.167Z,61.23
2022-11-06T06:17:25.979Z,59.83
2022-11-06T06:22:34.633Z,72.67
2022-11-06T06:27:42.484Z,76.50
2022-11-06T06:32:51.214Z,79.03
2022-11-06T06:37:59.172Z,69.43
2022-11-06T06:43:06.995Z,58.90
2022-11-06T06:48:15.728Z,50.30
2022-11-06T06:53:23.724Z,60.97
2022-11-06T06:58:31.866Z,51.17
2022-11-06T07:03:40.005Z,57.10
2022-11-06T07:08:48.337Z,71.23
2022-11-06T07:13:56.352Z,51.30
2022-11-06T07:19:04.763Z,45.90
2022-11-06T07:24:13.025Z,47.47
2022-11-06T07:29:20.972Z,48.97
2022-11-06T07:34:29.640Z,48.27
2022-11-06T07:39:37.475Z,48.53
2022-11-06T07:44:45.311Z,49.77
2022-11-06T07:49:54.212Z,54.50
2022-11-06T07:55:04.471Z,52.10
2022-11-06T08:00:14.174Z,55.13
2022-11-06T08:05:23.037Z,59.33
2022-11-06T08:10:31.856Z,58.70
2022-11-06T08:15:40.319Z,57.83
2022-11-06T08:20:48.475Z,36.70
2022-11-06T08:25:59.408Z,47.00
2022-11-06T08:31:08.419Z,48.17
2022-11-06T08:36:17.399Z,43.03
2022-11-06T08:41:25.237Z,38.60
2022-11-06T08:46:33.003Z,38.53
2022-11-06T08:51:40.988Z,36.53
2022-11-06T09:02:01.629Z,38.10
2022-11-06T09:07:10.203Z,36.60
2022-11-06T09:12:17.885Z,36.77
2022-11-06T09:17:26.012Z,32.03
2022-11-06T09:22:34.958Z,33.20
2022-11-06T09:27:45.832Z,41.80
2022-11-06T09:32:55.578Z,25.17
2022-11-06T09:38:05.773Z,26.63
2022-11-06T09:43:16.860Z,30.17
2022-11-06T09:48:27.976Z,28.40
2022-11-06T09:53:38.971Z,18.37
2022-11-06T09:58:46.888Z,21.87
2022-11-06T10:03:57.648Z,18.47
2022-11-06T10:09:07.960Z,23.83
2022-11-06T10:14:21.545Z,22.60
2022-11-06T10:19:32.587Z,14.60
2022-11-06T10:24:44.595Z,19.00
2022-11-06T10:29:56.336Z,14.90
2022-11-06T10:35:09.396Z,11.10
2022-11-06T10:40:21.697Z,13.77
2022-11-06T10:45:29.889Z,12.37
2022-11-06T10:50:41.250Z,14.30
2022-11-06T11:01:07.372Z,15.07
2022-11-06T11:06:15.532Z,12.83
2022-11-06T11:11:27.202Z,12.13
2022-11-06T11:16:37.953Z,13.43
2022-11-06T11:21:49.931Z,15.00
2022-11-06T11:27:02.375Z,7.93
2022-11-06T11:32:10.180Z,8.43
2022-11-06T11:37:21.544Z,11.23
2022-11-06T11:42:32.272Z,9.60
2022-11-06T11:47:42.723Z,13.40
2022-11-06T11:52:52.586Z,10.07
2022-11-06T11:58:01.726Z,7.37
2022-11-06T12:03:11.215Z,9.90
2022-11-06T12:08:22.318Z,7.87
2022-11-06T12:13:30.103Z,11.23
2022-11-06T12:18:41.456Z,8.27
2022-11-06T12:23:53.416Z,9.93
2022-11-06T12:29:06.252Z,10.93
2022-11-06T12:34:17.793Z,7.97
2022-11-06T12:39:26.537Z,7.13
2022-11-06T12:44:35.237Z,9.47
2022-11-06T12:49:48.005Z,12.20
2022-11-06T12:54:59.353Z,6.30
2022-11-06T13:00:10.676Z,16.60
2022-11-06T13:10:34.939Z,7.77
2022-11-06T13:15:46.043Z,7.57
2022-11-06T13:20:58.471Z,5.20
2022-11-06T13:31:21.141Z,6.70
2022-11-06T13:36:29.265Z,7.40
2022-11-06T13:41:37.896Z,8.10
2022-11-06T13:47:05.474Z,4.80
2022-11-06T13:52:16.153Z,8.10
2022-11-06T13:57:27.157Z,4.20
2022-11-06T14:02:38.746Z,8.80
2022-11-06T14:07:46.709Z,11.60
2022-11-06T14:12:54.529Z,12.90
2022-11-06T14:18:04.876Z,8.13
2022-11-06T14:23:17.160Z,8.70
2022-11-06T14:28:31.777Z,10.43
2022-11-06T14:38:54.944Z,8.73
2022-11-06T14:44:07.721Z,12.10
2022-11-06T14:49:18.641Z,9.67
2022-11-06T14:54:27.129Z,6.57
2022-11-06T14:59:42.020Z,10.37
2022-11-06T15:04:53.019Z,9.43
2022-11-06T15:10:01.040Z,13.53
2022-11-06T15:15:11.354Z,15.27
2022-11-06T15:20:22.289Z,13.60
2022-11-06T15:25:30.778Z,18.27
2022-11-06T15:30:41.769Z,21.63
2022-11-06T15:35:52.499Z,26.42
2022-11-06T15:41:01.050Z,26.47
2022-11-06T15:51:25.332Z,25.23
2022-11-06T15:56:36.193Z,23.97
2022-11-06T16:01:48.179Z,19.03
2022-11-06T16:06:56.407Z,22.73
2022-11-06T16:12:05.283Z,18.33
2022-11-06T16:17:17.395Z,15.60
2022-11-06T16:22:30.466Z,14.47
2022-11-06T16:27:41.291Z,15.93
2022-11-06T16:32:49.443Z,15.47
2022-11-06T16:38:12.916Z,18.30
2022-11-06T16:43:12.097Z,18.23
2022-11-06T16:48:23.300Z,20.60
2022-11-06T16:53:32.596Z,23.27
2022-11-06T16:58:45.661Z,21.43
2022-11-06T17:03:57.641Z,21.90
2022-11-06T17:09:09.856Z,30.77
2022-11-06T17:14:19.943Z,24.83
2022-11-06T17:19:29.141Z,26.00
2022-11-06T17:24:38.864Z,30.30
2022-11-06T17:29:47.246Z,26.10
2022-11-06T17:34:56.015Z,27.70
2022-11-06T17:40:05.843Z,23.87
2022-11-06T17:45:13.762Z,27.53
2022-11-06T17:50:22.043Z,23.30
2022-11-06T17:55:30.310Z,27.63
2022-11-06T18:00:38.159Z,22.93
2022-11-06T18:05:48.403Z,35.80
2022-11-06T18:10:57.815Z,46.80
2022-11-06T18:16:07.236Z,42.50
2022-11-06T18:21:16.201Z,38.73
2022-11-06T18:26:24.426Z,36.07
2022-11-06T18:31:33.246Z,39.00
2022-11-06T18:36:41.187Z,37.43
2022-11-06T18:41:49.771Z,41.80
2022-11-06T18:46:59.700Z,42.90
2022-11-06T18:52:08.228Z,39.87
2022-11-06T18:57:18.961Z,46.57
2022-11-06T19:02:27.751Z,43.23
2022-11-06T19:07:35.994Z,46.97
2022-11-06T19:12:44.314Z,47.87
2022-11-06T19:17:58.425Z,49.77
2022-11-06T19:23:11.713Z,60.17
2022-11-06T19:28:23.719Z,56.07
2022-11-06T19:33:33.024Z,70.67
2022-11-06T19:38:48.649Z,66.90
2022-11-06T19:44:05.363Z,51.30
2022-11-06T19:49:14.871Z,56.90
2022-11-06T19:54:26.631Z,56.67
2022-11-06T19:59:37.823Z,59.00
2022-11-06T20:04:46.193Z,66.80
2022-11-06T20:15:26.730Z,76.93
2022-11-06T20:20:37.312Z,69.80
2022-11-06T20:25:45.234Z,65.10
2022-11-06T20:30:51.363Z,56.87
2022-11-06T20:35:59.693Z,58.43
2022-11-06T20:41:08.619Z,62.23
2022-11-06T20:46:16.854Z,60.03
2022-11-06T20:51:27.432Z,49.57
2022-11-06T20:56:42.870Z,61.57
2022-11-06T21:01:50.971Z,68.77
2022-11-06T21:06:58.875Z,64.43
2022-11-06T21:12:07.070Z,61.30
2022-11-06T21:17:17.067Z,69.63
2022-11-06T21:22:24.938Z,59.27
2022-11-06T21:27:33.855Z,71.20
2022-11-06T21:32:41.981Z,67.93
2022-11-06T21:37:51.291Z,66.97
2022-11-06T21:43:00.079Z,78.07
2022-11-06T21:48:14.765Z,65.17
2022-11-06T21:53:21.095Z,68.10
2022-11-06T21:58:29.135Z,63.63
2022-11-06T22:03:37.109Z,57.80
2022-11-06T22:08:46.137Z,59.97
2022-11-06T22:13:54.493Z,61.67
2022-11-06T22:19:02.445Z,69.63
2022-11-06T22:24:12.048Z,71.97
2022-11-06T22:29:20.000Z,75.63
2022-11-06T22:34:29.724Z,77.80
2022-11-06T22:39:37.547Z,85.63
2022-11-06T22:44:46.322Z,81.27
2022-11-06T22:49:54.487Z,90.07
2022-11-06T22:55:02.575Z,88.90
2022-11-06T23:00:11.154Z,90.33
2022-11-06T23:05:18.982Z,78.43
2022-11-06T23:10:28.847Z,81.03
2022-11-06T23:15:37.475Z,80.57
2022-11-06T23:20:47.270Z,85.73
2022-11-06T23:25:56.933Z,83.93
2022-11-06T23:31:07.965Z,85.17
2022-11-06T23:36:17.673Z,104.83
2022-11-06T23:41:27.126Z,99.07
2022-11-06T23:46:36.138Z,81.40
2022-11-06T23:51:43.956Z,88.80
2022-11-06T23:56:53.032Z,93.90
